sensor_id;sensor_type;location;lat;lon;timestamp;temperature;humidity
53880;DHT22;39791;53.184;5.486;2023-01-24T00:00:30;4.60;99.90
53880;DHT22;39791;53.184;5.486;2023-01-24T00:02:55;4.50;99.90
53880;DHT22;39791;53.184;5.486;2023-01-24T00:05:21;4.40;99.90
53880;DHT22;39791;53.184;5.486;2023-01-24T00:07:46;4.20;99.90
53880;DHT22;39791;53.184;5.486;2023-01-24T00:10:12;4.10;99.90
53880;DHT22;39791;53.184;5.486;2023-01-24T00:12:38;4.10;99.90
53880;DHT22;39791;53.184;5.486;2023-01-24T00:15:04;4.20;99.90
53880;DHT22;39791;53.184;5.486;2023-01-24T00:17:29;4.30;99.90
53880;DHT22;39791;53.184;5.486;2023-01-24T00:19:55;4.40;99.90
53880;DHT22;39791;53.184;5.486;2023-01-24T00:22:21;4.40;99.90
53880;DHT22;39791;53.184;5.486;2023-01-24T00:24:47;4.40;99.90
53880;DHT22;39791;53.184;5.486;2023-01-24T00:27:17;4.20;99.90
53880;DHT22;39791;53.184;5.486;2023-01-24T00:29:42;4.30;99.90
53880;DHT22;39791;53.184;5.486;2023-01-24T00:32:08;4.30;99.90
53880;DHT22;39791;53.184;5.486;2023-01-24T00:34:34;4.30;99.90
53880;DHT22;39791;53.184;5.486;2023-01-24T00:37:00;4.40;99.90
53880;DHT22;39791;53.184;5.486;2023-01-24T00:39:25;4.30;99.90
53880;DHT22;39791;53.184;5.486;2023-01-24T00:41:51;4.50;99.90
53880;DHT22;39791;53.184;5.486;2023-01-24T00:44:16;4.50;99.90
53880;DHT22;39791;53.184;5.486;2023-01-24T00:46:42;4.30;99.90
53880;DHT22;39791;53.184;5.486;2023-01-24T00:49:08;4.20;99.90
53880;DHT22;39791;53.184;5.486;2023-01-24T00:51:34;4.40;99.90
53880;DHT22;39791;53.184;5.486;2023-01-24T00:54:00;4.40;99.90
53880;DHT22;39791;53.184;5.486;2023-01-24T00:56:26;4.40;99.90
53880;DHT22;39791;53.184;5.486;2023-01-24T00:58:51;4.50;99.90
53880;DHT22;39791;53.184;5.486;2023-01-24T01:01:17;4.50;99.90
53880;DHT22;39791;53.184;5.486;2023-01-24T01:03:42;4.60;99.90
53880;DHT22;39791;53.184;5.486;2023-01-24T01:06:15;4.60;99.90
53880;DHT22;39791;53.184;5.486;2023-01-24T01:08:41;4.50;99.90
53880;DHT22;39791;53.184;5.486;2023-01-24T01:11:07;4.60;99.90
53880;DHT22;39791;53.184;5.486;2023-01-24T01:13:33;4.50;99.90
53880;DHT22;39791;53.184;5.486;2023-01-24T01:16:09;4.60;99.90
53880;DHT22;39791;53.184;5.486;2023-01-24T01:18:35;4.60;99.90
53880;DHT22;39791;53.184;5.486;2023-01-24T01:21:01;4.60;99.90
53880;DHT22;39791;53.184;5.486;2023-01-24T01:23:27;4.60;99.90
53880;DHT22;39791;53.184;5.486;2023-01-24T01:25:58;4.50;99.90
53880;DHT22;39791;53.184;5.486;2023-01-24T01:28:24;4.50;99.90
53880;DHT22;39791;53.184;5.486;2023-01-24T01:30:53;4.40;99.90
53880;DHT22;39791;53.184;5.486;2023-01-24T01:33:19;4.40;99.90
53880;DHT22;39791;53.184;5.486;2023-01-24T01:35:47;4.50;99.90
53880;DHT22;39791;53.184;5.486;2023-01-24T01:38:13;4.70;99.90
53880;DHT22;39791;53.184;5.486;2023-01-24T01:40:38;4.60;99.90
53880;DHT22;39791;53.184;5.486;2023-01-24T01:43:08;4.70;99.90
53880;DHT22;39791;53.184;5.486;2023-01-24T01:45:48;4.50;99.90
53880;DHT22;39791;53.184;5.486;2023-01-24T01:48:21;4.50;99.90
53880;DHT22;39791;53.184;5.486;2023-01-24T01:51:10;4.40;99.90
53880;DHT22;39791;53.184;5.486;2023-01-24T01:53:43;4.60;99.90
53880;DHT22;39791;53.184;5.486;2023-01-24T01:56:27;4.60;99.90
53880;DHT22;39791;53.184;5.486;2023-01-24T01:58:55;4.60;99.90
53880;DHT22;39791;53.184;5.486;2023-01-24T02:01:22;4.70;99.90
53880;DHT22;39791;53.184;5.486;2023-01-24T02:03:53;4.60;99.90
53880;DHT22;39791;53.184;5.486;2023-01-24T02:07:00;4.70;99.90
53880;DHT22;39791;53.184;5.486;2023-01-24T02:09:31;4.60;99.90
53880;DHT22;39791;53.184;5.486;2023-01-24T02:12:01;4.80;99.90
53880;DHT22;39791;53.184;5.486;2023-01-24T02:14:28;4.80;99.90
53880;DHT22;39791;53.184;5.486;2023-01-24T02:17:16;4.80;99.90
53880;DHT22;39791;53.184;5.486;2023-01-24T02:28:19;4.60;99.90
53880;DHT22;39791;53.184;5.486;2023-01-24T02:30:45;4.50;99.90
53880;DHT22;39791;53.184;5.486;2023-01-24T02:33:19;4.90;99.90
53880;DHT22;39791;53.184;5.486;2023-01-24T02:35:46;4.80;99.90
53880;DHT22;39791;53.184;5.486;2023-01-24T02:38:23;4.80;99.90
53880;DHT22;39791;53.184;5.486;2023-01-24T02:40:53;4.80;99.90
53880;DHT22;39791;53.184;5.486;2023-01-24T02:43:22;4.80;99.90
53880;DHT22;39791;53.184;5.486;2023-01-24T02:45:49;4.70;99.90
53880;DHT22;39791;53.184;5.486;2023-01-24T02:48:14;4.50;99.90
53880;DHT22;39791;53.184;5.486;2023-01-24T02:50:40;4.60;99.90
53880;DHT22;39791;53.184;5.486;2023-01-24T02:53:24;4.80;99.90
53880;DHT22;39791;53.184;5.486;2023-01-24T02:56:07;4.80;99.90
53880;DHT22;39791;53.184;5.486;2023-01-24T02:58:52;4.90;99.90
53880;DHT22;39791;53.184;5.486;2023-01-24T03:01:19;5.00;99.90
53880;DHT22;39791;53.184;5.486;2023-01-24T03:03:46;4.80;99.90
53880;DHT22;39791;53.184;5.486;2023-01-24T03:06:13;4.70;99.90
53880;DHT22;39791;53.184;5.486;2023-01-24T03:08:39;4.80;99.90
53880;DHT22;39791;53.184;5.486;2023-01-24T03:11:06;4.80;99.90
53880;DHT22;39791;53.184;5.486;2023-01-24T03:13:33;4.70;99.90
53880;DHT22;39791;53.184;5.486;2023-01-24T03:16:17;4.80;99.90
53880;DHT22;39791;53.184;5.486;2023-01-24T03:19:02;4.90;99.90
53880;DHT22;39791;53.184;5.486;2023-01-24T03:21:46;4.80;99.90
53880;DHT22;39791;53.184;5.486;2023-01-24T03:24:31;4.80;99.90
53880;DHT22;39791;53.184;5.486;2023-01-24T03:27:15;4.70;99.90
53880;DHT22;39791;53.184;5.486;2023-01-24T03:30:00;4.60;99.90
53880;DHT22;39791;53.184;5.486;2023-01-24T03:32:45;4.80;99.90
53880;DHT22;39791;53.184;5.486;2023-01-24T03:35:30;4.80;99.90
53880;DHT22;39791;53.184;5.486;2023-01-24T03:37:56;4.80;99.90
53880;DHT22;39791;53.184;5.486;2023-01-24T03:40:40;4.90;99.90
53880;DHT22;39791;53.184;5.486;2023-01-24T03:43:06;4.70;99.90
53880;DHT22;39791;53.184;5.486;2023-01-24T03:45:34;4.70;99.90
53880;DHT22;39791;53.184;5.486;2023-01-24T03:48:02;4.60;99.90
53880;DHT22;39791;53.184;5.486;2023-01-24T03:50:36;4.50;99.90
53880;DHT22;39791;53.184;5.486;2023-01-24T03:53:24;4.60;99.90
53880;DHT22;39791;53.184;5.486;2023-01-24T03:55:58;4.50;99.90
53880;DHT22;39791;53.184;5.486;2023-01-24T03:58:25;4.70;99.90
53880;DHT22;39791;53.184;5.486;2023-01-24T04:00:52;4.80;99.90
53880;DHT22;39791;53.184;5.486;2023-01-24T04:03:18;4.80;99.90
53880;DHT22;39791;53.184;5.486;2023-01-24T04:05:46;4.60;99.90
53880;DHT22;39791;53.184;5.486;2023-01-24T04:08:12;4.60;99.90
53880;DHT22;39791;53.184;5.486;2023-01-24T04:10:38;4.60;99.90
53880;DHT22;39791;53.184;5.486;2023-01-24T04:13:03;4.70;99.90
53880;DHT22;39791;53.184;5.486;2023-01-24T04:15:30;4.60;99.90
53880;DHT22;39791;53.184;5.486;2023-01-24T04:17:57;4.70;99.90
53880;DHT22;39791;53.184;5.486;2023-01-24T04:20:25;4.70;99.90
53880;DHT22;39791;53.184;5.486;2023-01-24T04:22:50;4.80;99.90
53880;DHT22;39791;53.184;5.486;2023-01-24T04:25:16;4.70;99.90
53880;DHT22;39791;53.184;5.486;2023-01-24T04:27:42;4.60;99.90
53880;DHT22;39791;53.184;5.486;2023-01-24T04:30:10;4.60;99.90
53880;DHT22;39791;53.184;5.486;2023-01-24T04:32:37;4.60;99.90
53880;DHT22;39791;53.184;5.486;2023-01-24T04:35:03;4.70;99.90
53880;DHT22;39791;53.184;5.486;2023-01-24T04:37:30;4.70;99.90
53880;DHT22;39791;53.184;5.486;2023-01-24T04:39:55;4.80;99.90
53880;DHT22;39791;53.184;5.486;2023-01-24T04:42:21;4.70;99.90
53880;DHT22;39791;53.184;5.486;2023-01-24T04:44:47;4.70;99.90
53880;DHT22;39791;53.184;5.486;2023-01-24T04:47:13;4.60;99.90
53880;DHT22;39791;53.184;5.486;2023-01-24T04:49:39;4.50;99.90
53880;DHT22;39791;53.184;5.486;2023-01-24T04:52:06;4.50;99.90
53880;DHT22;39791;53.184;5.486;2023-01-24T04:54:31;4.60;99.90
53880;DHT22;39791;53.184;5.486;2023-01-24T04:56:57;4.50;99.90
53880;DHT22;39791;53.184;5.486;2023-01-24T04:59:22;4.70;99.90
53880;DHT22;39791;53.184;5.486;2023-01-24T05:01:48;4.70;99.90
53880;DHT22;39791;53.184;5.486;2023-01-24T05:04:13;4.60;99.90
53880;DHT22;39791;53.184;5.486;2023-01-24T05:06:40;4.60;99.90
53880;DHT22;39791;53.184;5.486;2023-01-24T05:09:05;4.50;99.90
53880;DHT22;39791;53.184;5.486;2023-01-24T05:11:31;4.50;99.90
53880;DHT22;39791;53.184;5.486;2023-01-24T05:13:56;4.60;99.90
53880;DHT22;39791;53.184;5.486;2023-01-24T05:16:22;4.60;99.90
53880;DHT22;39791;53.184;5.486;2023-01-24T05:18:48;4.80;99.90
53880;DHT22;39791;53.184;5.486;2023-01-24T05:21:15;4.70;99.90
53880;DHT22;39791;53.184;5.486;2023-01-24T05:23:41;4.80;99.90
53880;DHT22;39791;53.184;5.486;2023-01-24T05:26:08;4.70;99.90
53880;DHT22;39791;53.184;5.486;2023-01-24T05:28:34;4.60;99.90
53880;DHT22;39791;53.184;5.486;2023-01-24T05:31:05;4.60;99.90
53880;DHT22;39791;53.184;5.486;2023-01-24T05:33:35;4.60;99.90
53880;DHT22;39791;53.184;5.486;2023-01-24T05:36:10;4.60;99.90
53880;DHT22;39791;53.184;5.486;2023-01-24T05:38:36;4.60;99.90
53880;DHT22;39791;53.184;5.486;2023-01-24T05:41:07;4.70;99.90
53880;DHT22;39791;53.184;5.486;2023-01-24T05:43:33;4.60;99.90
53880;DHT22;39791;53.184;5.486;2023-01-24T05:46:01;4.50;99.90
53880;DHT22;39791;53.184;5.486;2023-01-24T05:48:27;4.60;99.90
53880;DHT22;39791;53.184;5.486;2023-01-24T05:51:01;4.60;99.90
53880;DHT22;39791;53.184;5.486;2023-01-24T05:53:29;4.60;99.90
53880;DHT22;39791;53.184;5.486;2023-01-24T05:56:03;4.70;99.90
53880;DHT22;39791;53.184;5.486;2023-01-24T05:58:33;4.70;99.90
53880;DHT22;39791;53.184;5.486;2023-01-24T06:00:59;4.70;99.90
53880;DHT22;39791;53.184;5.486;2023-01-24T06:03:25;4.70;99.90
53880;DHT22;39791;53.184;5.486;2023-01-24T06:05:52;4.60;99.90
53880;DHT22;39791;53.184;5.486;2023-01-24T06:08:19;4.50;99.90
53880;DHT22;39791;53.184;5.486;2023-01-24T06:10:45;4.60;99.90
53880;DHT22;39791;53.184;5.486;2023-01-24T06:13:11;4.70;99.90
53880;DHT22;39791;53.184;5.486;2023-01-24T06:15:37;4.70;99.90
53880;DHT22;39791;53.184;5.486;2023-01-24T06:18:03;4.80;99.90
53880;DHT22;39791;53.184;5.486;2023-01-24T06:20:29;4.80;99.90
53880;DHT22;39791;53.184;5.486;2023-01-24T06:23:06;4.70;99.90
53880;DHT22;39791;53.184;5.486;2023-01-24T06:25:33;4.50;99.90
53880;DHT22;39791;53.184;5.486;2023-01-24T06:27:59;4.50;99.90
53880;DHT22;39791;53.184;5.486;2023-01-24T06:30:25;4.60;99.90
53880;DHT22;39791;53.184;5.486;2023-01-24T06:33:30;4.60;99.90
53880;DHT22;39791;53.184;5.486;2023-01-24T06:38:30;4.60;99.90
53880;DHT22;39791;53.184;5.486;2023-01-24T06:40:57;4.80;99.90
53880;DHT22;39791;53.184;5.486;2023-01-24T06:43:25;4.50;99.90
53880;DHT22;39791;53.184;5.486;2023-01-24T06:45:50;4.50;99.90
53880;DHT22;39791;53.184;5.486;2023-01-24T06:48:16;4.40;99.90
53880;DHT22;39791;53.184;5.486;2023-01-24T06:50:42;4.50;99.90
53880;DHT22;39791;53.184;5.486;2023-01-24T06:53:07;4.50;99.90
53880;DHT22;39791;53.184;5.486;2023-01-24T06:55:34;4.50;99.90
53880;DHT22;39791;53.184;5.486;2023-01-24T06:58:01;4.50;99.90
53880;DHT22;39791;53.184;5.486;2023-01-24T07:00:28;4.60;99.90
53880;DHT22;39791;53.184;5.486;2023-01-24T07:03:02;4.60;99.90
53880;DHT22;39791;53.184;5.486;2023-01-24T07:05:28;4.70;99.90
53880;DHT22;39791;53.184;5.486;2023-01-24T07:07:54;4.50;99.90
53880;DHT22;39791;53.184;5.486;2023-01-24T07:10:20;4.50;99.90
53880;DHT22;39791;53.184;5.486;2023-01-24T07:12:46;4.90;1.00
53880;DHT22;39791;53.184;5.486;2023-01-24T07:15:13;4.70;99.90
53880;DHT22;39791;53.184;5.486;2023-01-24T07:17:38;4.60;99.90
53880;DHT22;39791;53.184;5.486;2023-01-24T07:20:05;4.70;99.90
53880;DHT22;39791;53.184;5.486;2023-01-24T07:22:31;4.60;99.90
53880;DHT22;39791;53.184;5.486;2023-01-24T07:24:57;4.50;99.90
53880;DHT22;39791;53.184;5.486;2023-01-24T07:27:22;4.40;99.90
53880;DHT22;39791;53.184;5.486;2023-01-24T07:29:48;4.60;99.90
53880;DHT22;39791;53.184;5.486;2023-01-24T07:32:14;4.50;99.90
53880;DHT22;39791;53.184;5.486;2023-01-24T07:34:39;4.60;99.90
53880;DHT22;39791;53.184;5.486;2023-01-24T07:37:08;4.70;99.90
53880;DHT22;39791;53.184;5.486;2023-01-24T07:39:33;4.70;99.90
53880;DHT22;39791;53.184;5.486;2023-01-24T07:41:59;4.70;99.90
53880;DHT22;39791;53.184;5.486;2023-01-24T07:44:25;4.70;99.90
53880;DHT22;39791;53.184;5.486;2023-01-24T07:46:50;4.60;99.90
53880;DHT22;39791;53.184;5.486;2023-01-24T07:49:16;4.50;99.90
53880;DHT22;39791;53.184;5.486;2023-01-24T07:51:42;4.60;99.90
53880;DHT22;39791;53.184;5.486;2023-01-24T07:54:08;4.70;99.90
53880;DHT22;39791;53.184;5.486;2023-01-24T07:56:33;4.60;99.90
53880;DHT22;39791;53.184;5.486;2023-01-24T07:58:59;4.60;99.90
53880;DHT22;39791;53.184;5.486;2023-01-24T08:01:25;4.60;99.90
53880;DHT22;39791;53.184;5.486;2023-01-24T08:03:57;4.50;99.90
53880;DHT22;39791;53.184;5.486;2023-01-24T08:06:23;4.50;99.90
53880;DHT22;39791;53.184;5.486;2023-01-24T08:08:48;4.60;99.90
53880;DHT22;39791;53.184;5.486;2023-01-24T08:11:14;4.40;99.90
53880;DHT22;39791;53.184;5.486;2023-01-24T08:13:45;4.50;99.90
53880;DHT22;39791;53.184;5.486;2023-01-24T08:16:11;4.50;99.90
53880;DHT22;39791;53.184;5.486;2023-01-24T08:18:37;4.50;99.90
53880;DHT22;39791;53.184;5.486;2023-01-24T08:21:03;4.50;99.90
53880;DHT22;39791;53.184;5.486;2023-01-24T08:23:30;4.30;99.90
53880;DHT22;39791;53.184;5.486;2023-01-24T08:26:02;4.30;99.90
53880;DHT22;39791;53.184;5.486;2023-01-24T08:28:28;4.40;99.90
53880;DHT22;39791;53.184;5.486;2023-01-24T08:30:57;4.50;99.90
53880;DHT22;39791;53.184;5.486;2023-01-24T08:33:22;4.60;99.90
53880;DHT22;39791;53.184;5.486;2023-01-24T08:35:48;4.50;99.90
53880;DHT22;39791;53.184;5.486;2023-01-24T08:38:15;4.40;99.90
53880;DHT22;39791;53.184;5.486;2023-01-24T08:40:41;4.40;99.90
53880;DHT22;39791;53.184;5.486;2023-01-24T08:43:07;4.40;99.90
53880;DHT22;39791;53.184;5.486;2023-01-24T08:45:33;4.40;99.90
53880;DHT22;39791;53.184;5.486;2023-01-24T08:47:59;4.30;99.90
53880;DHT22;39791;53.184;5.486;2023-01-24T08:50:25;4.40;99.90
53880;DHT22;39791;53.184;5.486;2023-01-24T08:52:54;4.60;99.90
53880;DHT22;39791;53.184;5.486;2023-01-24T08:55:20;4.50;99.90
53880;DHT22;39791;53.184;5.486;2023-01-24T08:57:45;4.50;99.90
53880;DHT22;39791;53.184;5.486;2023-01-24T09:00:11;4.40;99.90
53880;DHT22;39791;53.184;5.486;2023-01-24T09:02:37;4.40;99.90
53880;DHT22;39791;53.184;5.486;2023-01-24T09:05:07;4.30;99.90
53880;DHT22;39791;53.184;5.486;2023-01-24T09:07:33;4.30;99.90
53880;DHT22;39791;53.184;5.486;2023-01-24T09:10:03;4.40;99.90
53880;DHT22;39791;53.184;5.486;2023-01-24T09:12:29;4.50;99.90
53880;DHT22;39791;53.184;5.486;2023-01-24T09:14:57;4.30;99.90
53880;DHT22;39791;53.184;5.486;2023-01-24T09:17:22;4.20;99.90
53880;DHT22;39791;53.184;5.486;2023-01-24T09:19:48;4.40;99.90
53880;DHT22;39791;53.184;5.486;2023-01-24T09:22:13;4.40;99.90
53880;DHT22;39791;53.184;5.486;2023-01-24T09:24:39;4.40;99.90
53880;DHT22;39791;53.184;5.486;2023-01-24T09:27:04;4.60;99.90
53880;DHT22;39791;53.184;5.486;2023-01-24T09:29:30;4.40;99.90
53880;DHT22;39791;53.184;5.486;2023-01-24T09:31:55;4.50;99.90
53880;DHT22;39791;53.184;5.486;2023-01-24T09:34:21;4.50;99.90
53880;DHT22;39791;53.184;5.486;2023-01-24T09:36:48;4.50;99.90
53880;DHT22;39791;53.184;5.486;2023-01-24T09:39:15;4.50;99.90
53880;DHT22;39791;53.184;5.486;2023-01-24T09:42:06;4.50;99.90
53880;DHT22;39791;53.184;5.486;2023-01-24T09:50:01;4.40;99.90
53880;DHT22;39791;53.184;5.486;2023-01-24T09:52:38;4.50;99.90
53880;DHT22;39791;53.184;5.486;2023-01-24T09:55:23;4.40;99.90
53880;DHT22;39791;53.184;5.486;2023-01-24T10:00:27;4.30;99.90
53880;DHT22;39791;53.184;5.486;2023-01-24T10:02:58;4.50;99.90
53880;DHT22;39791;53.184;5.486;2023-01-24T10:05:40;4.30;99.90
53880;DHT22;39791;53.184;5.486;2023-01-24T10:08:22;4.20;99.90
53880;DHT22;39791;53.184;5.486;2023-01-24T10:11:00;4.20;99.90
53880;DHT22;39791;53.184;5.486;2023-01-24T10:24:31;4.20;99.90
53880;DHT22;39791;53.184;5.486;2023-01-24T10:26:59;4.40;99.90
53880;DHT22;39791;53.184;5.486;2023-01-24T10:29:27;4.20;99.90
53880;DHT22;39791;53.184;5.486;2023-01-24T10:32:13;4.20;99.90
53880;DHT22;39791;53.184;5.486;2023-01-24T10:34:46;4.30;99.90
53880;DHT22;39791;53.184;5.486;2023-01-24T10:37:21;4.30;99.90
53880;DHT22;39791;53.184;5.486;2023-01-24T10:39:47;4.20;99.90
53880;DHT22;39791;53.184;5.486;2023-01-24T10:44:47;4.30;99.90
53880;DHT22;39791;53.184;5.486;2023-01-24T10:50:06;4.10;99.90
53880;DHT22;39791;53.184;5.486;2023-01-24T10:52:32;3.70;99.90
53880;DHT22;39791;53.184;5.486;2023-01-24T10:55:00;3.70;99.90
53880;DHT22;39791;53.184;5.486;2023-01-24T10:59:56;4.00;99.90
53880;DHT22;39791;53.184;5.486;2023-01-24T11:02:25;4.10;99.90
53880;DHT22;39791;53.184;5.486;2023-01-24T11:04:59;4.10;99.90
53880;DHT22;39791;53.184;5.486;2023-01-24T11:07:29;4.30;99.90
53880;DHT22;39791;53.184;5.486;2023-01-24T11:09:55;4.40;99.90
53880;DHT22;39791;53.184;5.486;2023-01-24T11:12:23;4.30;99.90
53880;DHT22;39791;53.184;5.486;2023-01-24T11:14:49;4.50;99.90
53880;DHT22;39791;53.184;5.486;2023-01-24T11:17:31;4.40;99.90
53880;DHT22;39791;53.184;5.486;2023-01-24T11:23:10;4.50;99.90
53880;DHT22;39791;53.184;5.486;2023-01-24T11:25:54;4.30;99.90
53880;DHT22;39791;53.184;5.486;2023-01-24T11:30:55;3.60;99.90
53880;DHT22;39791;53.184;5.486;2023-01-24T11:39:02;4.20;1.00
53880;DHT22;39791;53.184;5.486;2023-01-24T11:41:37;4.30;1.00
53880;DHT22;39791;53.184;5.486;2023-01-24T11:47:08;4.50;1.00
53880;DHT22;39791;53.184;5.486;2023-01-24T11:50:02;4.40;1.00
53880;DHT22;39791;53.184;5.486;2023-01-24T11:55:53;4.40;1.00
53880;DHT22;39791;53.184;5.486;2023-01-24T12:00:58;4.30;99.90
53880;DHT22;39791;53.184;5.486;2023-01-24T12:03:42;4.40;99.90
53880;DHT22;39791;53.184;5.486;2023-01-24T12:06:34;4.30;99.90
53880;DHT22;39791;53.184;5.486;2023-01-24T12:09:16;4.30;1.00
53880;DHT22;39791;53.184;5.486;2023-01-24T12:12:02;4.80;1.00
53880;DHT22;39791;53.184;5.486;2023-01-24T12:17:26;4.60;1.00
53880;DHT22;39791;53.184;5.486;2023-01-24T12:22:39;4.50;1.00
53880;DHT22;39791;53.184;5.486;2023-01-24T12:25:20;4.40;1.00
53880;DHT22;39791;53.184;5.486;2023-01-24T12:27:50;4.40;1.00
53880;DHT22;39791;53.184;5.486;2023-01-24T12:30:39;4.40;1.00
53880;DHT22;39791;53.184;5.486;2023-01-24T12:33:33;4.30;1.00
53880;DHT22;39791;53.184;5.486;2023-01-24T12:36:34;4.30;1.00
53880;DHT22;39791;53.184;5.486;2023-01-24T12:39:06;4.40;1.00
53880;DHT22;39791;53.184;5.486;2023-01-24T12:41:36;4.50;1.00
53880;DHT22;39791;53.184;5.486;2023-01-24T12:44:23;4.50;1.00
53880;DHT22;39791;53.184;5.486;2023-01-24T12:47:10;4.40;1.00
53880;DHT22;39791;53.184;5.486;2023-01-24T12:55:24;4.50;1.00
53880;DHT22;39791;53.184;5.486;2023-01-24T12:58:03;4.40;1.00
53880;DHT22;39791;53.184;5.486;2023-01-24T13:00:45;4.50;1.00
53880;DHT22;39791;53.184;5.486;2023-01-24T13:06:13;4.60;1.00
53880;DHT22;39791;53.184;5.486;2023-01-24T13:09:44;4.40;1.00
53880;DHT22;39791;53.184;5.486;2023-01-24T13:11:43;4.40;1.00
53880;DHT22;39791;53.184;5.486;2023-01-24T13:14:29;4.20;1.00
53880;DHT22;39791;53.184;5.486;2023-01-24T13:17:21;4.30;1.00
53880;DHT22;39791;53.184;5.486;2023-01-24T13:22:30;4.30;1.00
53880;DHT22;39791;53.184;5.486;2023-01-24T13:25:00;4.30;1.00
53880;DHT22;39791;53.184;5.486;2023-01-24T13:27:48;4.40;1.00
53880;DHT22;39791;53.184;5.486;2023-01-24T13:33:07;4.20;1.00
53880;DHT22;39791;53.184;5.486;2023-01-24T13:35:48;4.10;1.00
53880;DHT22;39791;53.184;5.486;2023-01-24T13:41:03;4.30;1.00
53880;DHT22;39791;53.184;5.486;2023-01-24T13:46:17;4.20;1.00
53880;DHT22;39791;53.184;5.486;2023-01-24T13:48:45;4.20;1.00
53880;DHT22;39791;53.184;5.486;2023-01-24T13:56:23;4.20;1.00
53880;DHT22;39791;53.184;5.486;2023-01-24T13:58:51;4.00;1.00
53880;DHT22;39791;53.184;5.486;2023-01-24T14:01:17;4.10;1.00
53880;DHT22;39791;53.184;5.486;2023-01-24T14:03:57;4.10;1.00
53880;DHT22;39791;53.184;5.486;2023-01-24T14:06:24;4.40;1.00
53880;DHT22;39791;53.184;5.486;2023-01-24T14:09:03;4.30;1.00
53880;DHT22;39791;53.184;5.486;2023-01-24T14:11:33;4.30;1.00
53880;DHT22;39791;53.184;5.486;2023-01-24T14:14:21;4.10;1.00
53880;DHT22;39791;53.184;5.486;2023-01-24T14:19:27;4.50;66.30
53880;DHT22;39791;53.184;5.486;2023-01-24T14:21:56;4.30;41.20
53880;DHT22;39791;53.184;5.486;2023-01-24T14:26:54;4.30;36.30
53880;DHT22;39791;53.184;5.486;2023-01-24T14:29:21;4.30;33.00
53880;DHT22;39791;53.184;5.486;2023-01-24T14:31:51;4.40;43.90
53880;DHT22;39791;53.184;5.486;2023-01-24T14:34:27;4.30;50.10
53880;DHT22;39791;53.184;5.486;2023-01-24T14:37:01;4.20;48.40
53880;DHT22;39791;53.184;5.486;2023-01-24T14:39:27;4.30;64.60
53880;DHT22;39791;53.184;5.486;2023-01-24T14:41:58;4.00;64.10
53880;DHT22;39791;53.184;5.486;2023-01-24T14:47:03;4.00;59.20
53880;DHT22;39791;53.184;5.486;2023-01-24T14:49:34;4.10;58.00
53880;DHT22;39791;53.184;5.486;2023-01-24T14:52:02;4.20;55.20
53880;DHT22;39791;53.184;5.486;2023-01-24T14:54:28;4.00;55.30
53880;DHT22;39791;53.184;5.486;2023-01-24T14:56:53;4.00;57.70
53880;DHT22;39791;53.184;5.486;2023-01-24T14:59:20;4.10;99.90
53880;DHT22;39791;53.184;5.486;2023-01-24T15:01:51;4.20;99.90
53880;DHT22;39791;53.184;5.486;2023-01-24T15:04:21;4.00;99.90
53880;DHT22;39791;53.184;5.486;2023-01-24T15:07:20;4.20;99.90
53880;DHT22;39791;53.184;5.486;2023-01-24T15:09:47;3.90;99.90
53880;DHT22;39791;53.184;5.486;2023-01-24T15:12:28;3.80;99.90
53880;DHT22;39791;53.184;5.486;2023-01-24T15:14:55;3.90;99.90
53880;DHT22;39791;53.184;5.486;2023-01-24T15:17:24;3.80;99.90
53880;DHT22;39791;53.184;5.486;2023-01-24T15:20:13;4.00;99.90
53880;DHT22;39791;53.184;5.486;2023-01-24T15:22:38;3.80;99.90
53880;DHT22;39791;53.184;5.486;2023-01-24T15:25:21;3.90;28.70
53880;DHT22;39791;53.184;5.486;2023-01-24T15:27:47;3.90;27.40
53880;DHT22;39791;53.184;5.486;2023-01-24T15:30:22;4.10;19.80
53880;DHT22;39791;53.184;5.486;2023-01-24T15:32:50;4.10;13.60
53880;DHT22;39791;53.184;5.486;2023-01-24T15:35:45;4.00;13.50
53880;DHT22;39791;53.184;5.486;2023-01-24T15:38:23;3.80;21.60
53880;DHT22;39791;53.184;5.486;2023-01-24T15:43:34;4.10;24.80
53880;DHT22;39791;53.184;5.486;2023-01-24T15:49:32;4.00;41.50
53880;DHT22;39791;53.184;5.486;2023-01-24T15:54:43;3.90;41.80
53880;DHT22;39791;53.184;5.486;2023-01-24T15:57:20;4.00;48.10
53880;DHT22;39791;53.184;5.486;2023-01-24T15:59:50;4.00;68.40
53880;DHT22;39791;53.184;5.486;2023-01-24T16:02:16;4.00;79.70
53880;DHT22;39791;53.184;5.486;2023-01-24T16:04:42;3.80;93.30
53880;DHT22;39791;53.184;5.486;2023-01-24T16:07:08;4.00;93.60
53880;DHT22;39791;53.184;5.486;2023-01-24T16:09:33;4.00;92.50
53880;DHT22;39791;53.184;5.486;2023-01-24T16:12:00;3.80;89.50
53880;DHT22;39791;53.184;5.486;2023-01-24T16:14:26;3.80;85.10
53880;DHT22;39791;53.184;5.486;2023-01-24T16:16:53;3.90;83.80
53880;DHT22;39791;53.184;5.486;2023-01-24T16:19:21;4.00;99.90
53880;DHT22;39791;53.184;5.486;2023-01-24T16:21:47;3.90;99.90
53880;DHT22;39791;53.184;5.486;2023-01-24T16:24:13;4.00;99.90
53880;DHT22;39791;53.184;5.486;2023-01-24T16:26:43;3.70;99.90
53880;DHT22;39791;53.184;5.486;2023-01-24T16:29:12;3.90;99.90
53880;DHT22;39791;53.184;5.486;2023-01-24T16:31:39;3.70;99.90
53880;DHT22;39791;53.184;5.486;2023-01-24T16:34:05;3.70;99.90
53880;DHT22;39791;53.184;5.486;2023-01-24T16:36:31;3.60;99.90
53880;DHT22;39791;53.184;5.486;2023-01-24T16:38:57;3.60;99.90
53880;DHT22;39791;53.184;5.486;2023-01-24T16:41:23;3.60;99.90
53880;DHT22;39791;53.184;5.486;2023-01-24T16:43:48;3.80;99.90
53880;DHT22;39791;53.184;5.486;2023-01-24T16:46:19;3.90;99.90
53880;DHT22;39791;53.184;5.486;2023-01-24T16:48:45;3.90;99.90
53880;DHT22;39791;53.184;5.486;2023-01-24T16:51:13;3.80;99.90
53880;DHT22;39791;53.184;5.486;2023-01-24T16:53:38;3.60;99.90
53880;DHT22;39791;53.184;5.486;2023-01-24T16:56:04;3.80;99.90
53880;DHT22;39791;53.184;5.486;2023-01-24T16:58:30;4.00;99.90
53880;DHT22;39791;53.184;5.486;2023-01-24T17:00:55;4.00;99.90
53880;DHT22;39791;53.184;5.486;2023-01-24T17:03:21;3.90;99.90
53880;DHT22;39791;53.184;5.486;2023-01-24T17:05:47;3.90;99.90
53880;DHT22;39791;53.184;5.486;2023-01-24T17:08:13;3.70;99.90
53880;DHT22;39791;53.184;5.486;2023-01-24T17:10:40;3.60;99.90
53880;DHT22;39791;53.184;5.486;2023-01-24T17:13:07;3.60;99.90
53880;DHT22;39791;53.184;5.486;2023-01-24T17:15:36;3.40;99.90
53880;DHT22;39791;53.184;5.486;2023-01-24T17:18:03;3.80;99.90
53880;DHT22;39791;53.184;5.486;2023-01-24T17:20:29;3.70;99.90
53880;DHT22;39791;53.184;5.486;2023-01-24T17:22:54;3.60;99.90
53880;DHT22;39791;53.184;5.486;2023-01-24T17:25:20;3.80;99.90
53880;DHT22;39791;53.184;5.486;2023-01-24T17:27:45;3.80;99.90
53880;DHT22;39791;53.184;5.486;2023-01-24T17:30:13;3.60;99.90
53880;DHT22;39791;53.184;5.486;2023-01-24T17:32:38;3.90;99.90
53880;DHT22;39791;53.184;5.486;2023-01-24T17:35:04;3.90;99.90
53880;DHT22;39791;53.184;5.486;2023-01-24T17:37:30;3.80;99.90
53880;DHT22;39791;53.184;5.486;2023-01-24T17:39:56;3.70;99.90
53880;DHT22;39791;53.184;5.486;2023-01-24T17:42:22;4.00;99.90
53880;DHT22;39791;53.184;5.486;2023-01-24T17:44:47;4.00;99.90
53880;DHT22;39791;53.184;5.486;2023-01-24T17:47:13;3.80;99.90
53880;DHT22;39791;53.184;5.486;2023-01-24T17:49:38;3.90;99.90